createdAt,value
2022-09-20T00:00:35.646Z,15.90
2022-09-20T00:03:22.177Z,15.90
2022-09-20T00:05:51.850Z,15.80
2022-09-20T00:08:21.815Z,15.80
2022-09-20T00:10:51.222Z,15.70
2022-09-20T00:13:20.545Z,15.50
2022-09-20T00:15:47.753Z,15.40
2022-09-20T00:18:14.738Z,15.30
2022-09-20T00:20:47.408Z,15.20
2022-09-20T00:23:21.044Z,15.00
2022-09-20T00:25:59.119Z,14.90
2022-09-20T00:28:27.352Z,14.80
2022-09-20T00:30:57.740Z,14.80
2022-09-20T00:34:24.868Z,14.70
2022-09-20T00:36:51.935Z,14.50
2022-09-20T00:39:19.025Z,14.50
2022-09-20T00:41:46.503Z,14.40
2022-09-20T00:44:59.195Z,14.30
2022-09-20T00:47:34.287Z,14.20
2022-09-20T00:50:38.617Z,14.10
2022-09-20T00:53:32.023Z,14.00
2022-09-20T00:56:06.999Z,14.00
2022-09-20T00:58:42.364Z,13.90
2022-09-20T01:01:10.569Z,13.80
2022-09-20T01:03:42.392Z,13.70
2022-09-20T01:06:14.012Z,13.70
2022-09-20T01:08:45.931Z,13.60
2022-09-20T01:11:13.206Z,13.60
2022-09-20T01:13:40.769Z,13.50
2022-09-20T01:16:09.356Z,13.50
2022-09-20T01:18:38.390Z,13.40
2022-09-20T01:21:07.979Z,13.40
2022-09-20T01:23:59.282Z,13.30
2022-09-20T01:26:38.240Z,13.20
2022-09-20T01:29:30.259Z,13.30
2022-09-20T01:32:01.144Z,13.20
2022-09-20T01:34:37.618Z,13.20
2022-09-20T01:37:23.221Z,13.10
2022-09-20T01:40:00.758Z,13.10
2022-09-20T01:42:37.677Z,13.00
2022-09-20T01:45:32.404Z,13.00
2022-09-20T01:48:33.535Z,13.10
2022-09-20T01:51:18.733Z,13.00
2022-09-20T01:54:48.506Z,12.90
2022-09-20T01:57:30.448Z,12.90
2022-09-20T02:00:06.821Z,12.80
2022-09-20T02:02:54.088Z,12.80
2022-09-20T02:05:42.314Z,12.80
2022-09-20T02:08:38.288Z,12.70
2022-09-20T02:11:19.770Z,12.70
2022-09-20T02:14:24.907Z,12.80
2022-09-20T02:17:10.657Z,12.80
2022-09-20T02:20:12.703Z,12.80
2022-09-20T02:23:01.180Z,12.80
2022-09-20T02:25:49.750Z,12.90
2022-09-20T02:28:49.532Z,13.00
2022-09-20T02:31:28.679Z,13.10
2022-09-20T02:37:55.417Z,13.30
2022-09-20T02:40:39.956Z,13.40
2022-09-20T02:47:32.231Z,13.50
2022-09-20T02:50:18.165Z,13.50
2022-09-20T02:52:47.322Z,13.60
2022-09-20T02:55:26.159Z,13.70
2022-09-20T02:58:10.618Z,13.70
2022-09-20T03:00:53.782Z,13.70
2022-09-20T03:07:33.080Z,13.80
2022-09-20T03:10:18.365Z,13.90
2022-09-20T03:13:25.608Z,13.80
2022-09-20T03:16:07.943Z,13.80
2022-09-20T03:18:49.050Z,13.90
2022-09-20T03:21:34.103Z,13.90
2022-09-20T03:24:37.951Z,13.90
2022-09-20T03:27:08.252Z,14.00
2022-09-20T03:29:59.613Z,14.00
2022-09-20T03:32:45.047Z,14.00
2022-09-20T03:35:17.966Z,14.10
2022-09-20T03:37:47.898Z,14.10
2022-09-20T03:40:17.957Z,14.10
2022-09-20T03:51:33.840Z,14.00
2022-09-20T03:54:42.536Z,14.00
2022-09-20T03:57:35.612Z,14.00
2022-09-20T04:00:23.716Z,14.00
2022-09-20T04:06:53.584Z,13.90
2022-09-20T04:09:28.461Z,13.80
2022-09-20T04:12:11.246Z,13.70
2022-09-20T04:14:47.783Z,13.70
2022-09-20T04:17:31.407Z,13.70
2022-09-20T04:20:13.294Z,13.60
2022-09-20T04:22:44.840Z,13.40
2022-09-20T04:25:27.848Z,13.30
2022-09-20T04:28:04.975Z,13.20
2022-09-20T04:30:37.641Z,13.00
2022-09-20T04:37:33.660Z,12.80
2022-09-20T04:40:25.043Z,12.60
2022-09-20T04:47:33.374Z,12.40
2022-09-20T04:50:22.309Z,12.30
2022-09-20T04:53:46.717Z,12.30
2022-09-20T04:56:44.913Z,12.10
2022-09-20T04:59:37.218Z,12.10
2022-09-20T05:02:33.760Z,12.00
2022-09-20T05:05:25.920Z,11.90
2022-09-20T05:08:32.679Z,11.80
2022-09-20T05:11:21.586Z,11.80
2022-09-20T05:14:41.850Z,11.70
2022-09-20T05:17:23.657Z,11.60
2022-09-20T05:20:07.569Z,11.60
2022-09-20T05:27:06.368Z,11.60
2022-09-20T05:30:04.449Z,11.50
2022-09-20T05:32:52.321Z,11.50
2022-09-20T05:35:24.153Z,11.50
2022-09-20T05:38:14.004Z,11.40
2022-09-20T05:41:00.550Z,11.40
2022-09-20T05:44:04.712Z,11.30
2022-09-20T05:46:49.036Z,11.30
2022-09-20T05:49:50.425Z,11.30
2022-09-20T05:52:45.589Z,11.30
2022-09-20T05:55:36.834Z,11.20
2022-09-20T05:58:41.385Z,11.20
2022-09-20T06:01:21.984Z,11.10
2022-09-20T06:04:16.137Z,11.10
2022-09-20T06:06:49.887Z,11.00
2022-09-20T06:09:29.121Z,11.00
2022-09-20T06:12:08.240Z,11.00
2022-09-20T06:15:05.234Z,11.00
2022-09-20T06:17:52.975Z,10.90
2022-09-20T06:20:35.777Z,11.00
2022-09-20T06:23:06.879Z,11.00
2022-09-20T06:25:45.697Z,11.10
2022-09-20T06:28:24.239Z,11.10
2022-09-20T06:30:53.551Z,11.10
2022-09-20T06:34:02.958Z,11.20
2022-09-20T06:36:55.265Z,11.30
2022-09-20T06:39:52.262Z,11.30
2022-09-20T06:42:19.595Z,11.40
2022-09-20T06:44:51.113Z,11.50
2022-09-20T06:47:18.911Z,11.60
2022-09-20T06:49:46.855Z,11.60
2022-09-20T06:52:15.872Z,11.70
2022-09-20T06:54:45.922Z,11.80
2022-09-20T06:57:15.954Z,11.90
2022-09-20T06:59:42.964Z,12.00
2022-09-20T07:02:11.135Z,12.10
2022-09-20T07:04:38.418Z,12.20
2022-09-20T07:07:09.475Z,12.30
2022-09-20T07:09:36.860Z,12.50
2022-09-20T07:12:04.093Z,12.70
2022-09-20T07:15:09.894Z,12.90
2022-09-20T07:17:36.964Z,13.10
2022-09-20T07:20:04.324Z,13.20
2022-09-20T07:22:31.352Z,13.40
2022-09-20T07:25:02.504Z,13.60
2022-09-20T07:27:30.110Z,13.80
2022-09-20T07:29:57.208Z,13.90
2022-09-20T07:32:24.027Z,14.10
2022-09-20T07:34:50.956Z,14.30
2022-09-20T07:37:19.332Z,14.50
2022-09-20T07:39:46.327Z,14.60
2022-09-20T07:42:13.655Z,14.70
2022-09-20T07:44:43.557Z,14.80
2022-09-20T07:47:11.266Z,15.00
2022-09-20T07:49:38.176Z,15.10
2022-09-20T07:52:05.296Z,15.30
2022-09-20T07:54:36.965Z,15.40
2022-09-20T07:57:05.652Z,15.60
2022-09-20T07:59:32.717Z,15.70
2022-09-20T08:02:00.657Z,15.90
2022-09-20T08:08:54.455Z,16.20
2022-09-20T08:11:28.603Z,16.50
2022-09-20T08:14:25.698Z,16.50
2022-09-20T08:16:52.676Z,16.60
2022-09-20T08:19:21.865Z,16.70
2022-09-20T08:21:50.214Z,16.80
2022-09-20T08:24:47.665Z,16.90
2022-09-20T08:27:14.610Z,17.10
2022-09-20T08:29:41.832Z,17.30
2022-09-20T08:32:08.720Z,17.60
2022-09-20T08:35:47.388Z,17.80
2022-09-20T08:41:05.817Z,18.30
2022-09-20T08:44:07.376Z,18.40
2022-09-20T08:46:38.987Z,18.50
2022-09-20T08:49:10.800Z,18.60
2022-09-20T08:51:42.877Z,18.80
2022-09-20T08:55:15.074Z,18.90
2022-09-20T08:57:42.368Z,19.00
2022-09-20T09:00:18.101Z,19.20
2022-09-20T09:06:46.386Z,19.40
2022-09-20T09:09:23.604Z,19.60
2022-09-20T09:11:52.303Z,19.70
2022-09-20T09:15:31.065Z,19.90
2022-09-20T09:17:58.356Z,20.10
2022-09-20T09:20:25.630Z,20.30
2022-09-20T09:23:25.239Z,20.50
2022-09-20T09:25:54.670Z,20.60
2022-09-20T09:28:26.737Z,20.70
2022-09-20T09:31:11.466Z,20.70
2022-09-20T09:37:55.466Z,20.50
2022-09-20T09:40:22.739Z,20.40
2022-09-20T09:43:20.330Z,20.40
2022-09-20T09:45:47.229Z,20.50
2022-09-20T09:48:21.257Z,20.70
2022-09-20T09:50:48.430Z,21.00
2022-09-20T09:53:22.932Z,21.20
2022-09-20T09:55:59.265Z,21.30
2022-09-20T09:58:44.839Z,21.50
2022-09-20T10:01:42.980Z,21.70
2022-09-20T10:04:38.699Z,22.00
2022-09-20T10:07:14.358Z,22.10
2022-09-20T10:10:19.357Z,22.20
2022-09-20T10:13:29.349Z,22.30
2022-09-20T10:16:29.299Z,22.40
2022-09-20T10:19:19.516Z,22.40
2022-09-20T10:21:56.951Z,22.50
2022-09-20T10:25:06.765Z,22.60
2022-09-20T10:27:42.895Z,22.80
2022-09-20T10:30:29.279Z,23.00
2022-09-20T10:33:23.434Z,23.10
2022-09-20T10:36:06.515Z,23.20
2022-09-20T10:38:53.834Z,23.40
2022-09-20T10:42:10.228Z,23.50
2022-09-20T10:45:24.596Z,23.60
2022-09-20T10:48:49.521Z,23.60
2022-09-20T10:51:53.781Z,23.70
2022-09-20T10:54:32.488Z,23.90
2022-09-20T10:57:18.159Z,24.00
2022-09-20T11:00:17.113Z,24.20
2022-09-20T11:03:08.934Z,24.40
2022-09-20T11:05:53.236Z,24.60
2022-09-20T11:08:23.073Z,24.60
2022-09-20T11:11:01.826Z,24.50
2022-09-20T11:14:35.414Z,24.50
2022-09-20T11:17:10.741Z,24.60
2022-09-20T11:19:50.726Z,24.70
2022-09-20T11:22:48.181Z,24.60
2022-09-20T11:25:29.753Z,24.60
2022-09-20T11:28:33.467Z,24.60
2022-09-20T11:31:12.963Z,24.80
2022-09-20T11:33:55.768Z,25.00
2022-09-20T11:36:39.407Z,25.20
2022-09-20T11:39:22.476Z,25.40
2022-09-20T11:41:55.002Z,25.70
2022-09-20T11:45:14.080Z,25.80
2022-09-20T11:47:55.578Z,26.00
2022-09-20T11:50:47.633Z,25.90
2022-09-20T11:53:58.229Z,25.90
2022-09-20T11:56:29.114Z,25.90
2022-09-20T11:59:02.175Z,25.80
2022-09-20T12:01:36.524Z,25.70
2022-09-20T12:04:32.461Z,25.70
2022-09-20T12:07:10.653Z,25.70
2022-09-20T12:09:43.252Z,25.80
2022-09-20T12:12:38.047Z,25.80
2022-09-20T12:15:27.426Z,25.70
2022-09-20T12:17:57.636Z,25.60
2022-09-20T12:20:36.463Z,25.80
2022-09-20T12:23:38.684Z,26.10
2022-09-20T12:26:08.533Z,26.20
2022-09-20T12:28:44.498Z,26.00
2022-09-20T12:31:29.326Z,25.90
2022-09-20T12:34:14.989Z,26.00
2022-09-20T12:36:55.976Z,26.10
2022-09-20T12:39:30.236Z,26.10
2022-09-20T12:42:11.517Z,26.30
2022-09-20T12:44:50.948Z,26.60
2022-09-20T12:47:22.877Z,26.80
2022-09-20T12:50:10.824Z,26.70
2022-09-20T12:52:59.042Z,26.50
2022-09-20T12:55:30.129Z,26.40
2022-09-20T12:58:17.419Z,26.40
2022-09-20T13:00:53.051Z,26.40
2022-09-20T13:03:29.807Z,26.40
2022-09-20T13:06:06.730Z,26.30
2022-09-20T13:08:48.682Z,26.40
2022-09-20T13:11:20.543Z,26.90
2022-09-20T13:13:58.687Z,27.50
2022-09-20T13:16:37.988Z,27.80
2022-09-20T13:19:12.756Z,28.00
2022-09-20T13:22:07.062Z,28.10
2022-09-20T13:24:41.916Z,28.20
2022-09-20T13:27:20.760Z,28.60
2022-09-20T13:29:47.857Z,29.10
2022-09-20T13:32:18.886Z,29.40
2022-09-20T13:35:10.146Z,29.50
2022-09-20T13:37:54.049Z,29.40
2022-09-20T13:40:34.222Z,29.20
2022-09-20T13:43:22.963Z,29.00
2022-09-20T13:45:58.947Z,29.00
2022-09-20T13:48:27.900Z,28.70
2022-09-20T13:50:56.109Z,28.60
2022-09-20T13:53:41.187Z,28.50
2022-09-20T13:56:25.847Z,28.40
2022-09-20T13:58:54.029Z,28.10
2022-09-20T14:01:35.530Z,27.90
2022-09-20T14:04:18.628Z,27.80
2022-09-20T14:06:46.606Z,27.80
2022-09-20T14:09:40.347Z,27.90
2022-09-20T14:12:08.208Z,27.90
2022-09-20T14:14:41.350Z,27.80
2022-09-20T14:17:09.844Z,27.70
2022-09-20T14:19:42.654Z,27.80
2022-09-20T14:22:19.257Z,27.90
2022-09-20T14:25:14.680Z,27.90
2022-09-20T14:27:45.261Z,27.90
2022-09-20T14:30:36.309Z,27.80
2022-09-20T14:33:12.653Z,27.60
2022-09-20T14:35:50.781Z,27.50
2022-09-20T14:38:26.240Z,27.20
2022-09-20T14:40:54.036Z,27.10
2022-09-20T14:43:31.687Z,27.20
2022-09-20T14:46:09.386Z,27.20
2022-09-20T14:48:42.158Z,27.20
2022-09-20T14:51:19.059Z,27.30
2022-09-20T14:53:50.612Z,27.20
2022-09-20T14:56:27.568Z,27.20
2022-09-20T14:59:14.099Z,27.10
2022-09-20T15:01:58.466Z,26.80
2022-09-20T15:04:28.861Z,26.60
2022-09-20T15:07:00.253Z,26.50
2022-09-20T15:09:27.700Z,26.40
2022-09-20T15:12:04.755Z,26.40
2022-09-20T15:14:38.251Z,26.30
2022-09-20T15:17:06.214Z,26.20
2022-09-20T15:19:34.619Z,26.10
2022-09-20T15:22:02.171Z,26.00
2022-09-20T15:24:31.470Z,25.90
2022-09-20T15:26:58.729Z,25.70
2022-09-20T15:29:26.161Z,25.50
2022-09-20T15:31:53.377Z,25.40
2022-09-20T15:34:21.499Z,25.20
2022-09-20T15:36:49.003Z,25.00
2022-09-20T15:39:16.495Z,24.90
2022-09-20T15:41:45.311Z,25.50
2022-09-20T15:44:18.801Z,26.50
2022-09-20T15:46:45.891Z,27.20
2022-09-20T15:49:13.132Z,27.30
2022-09-20T15:51:40.578Z,27.10
2022-09-20T15:54:12.357Z,26.80
2022-09-20T15:56:42.556Z,26.40
2022-09-20T15:59:11.300Z,26.00
2022-09-20T16:01:43.852Z,25.60
2022-09-20T16:04:21.107Z,25.30
2022-09-20T16:06:50.346Z,25.00
2022-09-20T16:09:18.630Z,24.70
2022-09-20T16:11:48.575Z,24.40
2022-09-20T16:14:43.352Z,24.20
2022-09-20T16:17:10.348Z,23.90
2022-09-20T16:19:38.508Z,23.80
2022-09-20T16:22:05.664Z,23.70
2022-09-20T16:24:34.795Z,23.50
2022-09-20T16:27:04.097Z,23.40
2022-09-20T16:29:31.682Z,23.30
2022-09-20T16:32:00.767Z,23.20
2022-09-20T16:34:34.530Z,23.10
2022-09-20T16:37:15.933Z,23.00
2022-09-20T16:39:44.471Z,22.90
2022-09-20T16:42:12.490Z,22.80
2022-09-20T16:44:42.919Z,22.80
2022-09-20T16:47:25.129Z,22.60
2022-09-20T16:49:54.349Z,22.60
2022-09-20T16:52:21.579Z,22.60
2022-09-20T16:54:48.745Z,22.50
2022-09-20T16:57:16.240Z,22.40
2022-09-20T16:59:43.385Z,22.40
2022-09-20T17:02:13.891Z,22.30
2022-09-20T17:04:43.937Z,22.20
2022-09-20T17:07:11.071Z,22.10
2022-09-20T17:09:38.211Z,22.10
2022-09-20T17:12:09.415Z,22.00
2022-09-20T17:14:37.275Z,21.90
2022-09-20T17:17:04.401Z,21.80
2022-09-20T17:19:31.448Z,21.80
2022-09-20T17:21:58.477Z,21.70
2022-09-20T17:24:26.489Z,21.70
2022-09-20T17:26:53.991Z,21.60
2022-09-20T17:29:21.829Z,21.50
2022-09-20T17:31:56.279Z,21.50
2022-09-20T17:34:45.051Z,21.50
2022-09-20T17:37:12.615Z,21.40
2022-09-20T17:39:40.873Z,21.40
2022-09-20T17:42:07.923Z,21.40
2022-09-20T17:44:37.702Z,21.30
2022-09-20T17:47:05.096Z,21.20
2022-09-20T17:49:32.293Z,21.10
2022-09-20T17:51:59.442Z,21.10
2022-09-20T17:54:45.333Z,21.10
2022-09-20T17:57:12.522Z,21.00
2022-09-20T17:59:39.616Z,20.90
2022-09-20T18:02:06.824Z,20.90
2022-09-20T18:04:38.793Z,20.80
2022-09-20T18:07:05.900Z,20.80
2022-09-20T18:09:32.942Z,20.70
2022-09-20T18:12:00.128Z,20.70
2022-09-20T18:14:33.200Z,20.60
2022-09-20T18:17:03.665Z,20.50
2022-09-20T18:19:34.464Z,20.40
2022-09-20T18:22:02.532Z,20.30
2022-09-20T18:24:31.973Z,20.20
2022-09-20T18:27:00.958Z,20.10
2022-09-20T18:29:29.276Z,20.00
2022-09-20T18:31:56.869Z,19.90
2022-09-20T18:34:26.731Z,19.80
2022-09-20T18:36:55.890Z,19.70
2022-09-20T18:39:35.748Z,19.60
2022-09-20T18:42:04.294Z,19.50
2022-09-20T18:44:33.861Z,19.40
2022-09-20T18:47:03.425Z,19.30
2022-09-20T18:49:30.556Z,19.20
2022-09-20T18:51:58.324Z,19.10
2022-09-20T18:58:20.882Z,18.90
2022-09-20T19:00:49.939Z,18.80
2022-09-20T19:03:43.780Z,18.80
2022-09-20T19:06:35.638Z,18.70
2022-09-20T19:09:18.880Z,18.70
2022-09-20T19:11:55.876Z,18.70
2022-09-20T19:15:00.776Z,18.60
2022-09-20T19:17:53.986Z,18.50
2022-09-20T19:21:29.215Z,18.50
2022-09-20T19:25:01.318Z,18.50
2022-09-20T19:27:28.697Z,18.40
2022-09-20T19:29:56.015Z,18.40
2022-09-20T19:32:26.236Z,18.40
2022-09-20T19:35:01.535Z,18.40
2022-09-20T19:37:55.258Z,18.40
2022-09-20T19:40:45.779Z,18.30
2022-09-20T19:47:25.335Z,18.30
2022-09-20T19:50:04.188Z,18.20
2022-09-20T19:52:31.455Z,18.10
2022-09-20T19:54:58.596Z,18.10
2022-09-20T19:57:43.873Z,18.10
2022-09-20T20:00:16.116Z,18.00
2022-09-20T20:02:44.796Z,18.00
2022-09-20T20:05:20.207Z,18.00
2022-09-20T20:07:59.513Z,17.90
2022-09-20T20:10:55.001Z,17.90
2022-09-20T20:13:54.941Z,17.80
2022-09-20T20:16:50.205Z,17.80
2022-09-20T20:19:40.722Z,17.80
2022-09-20T20:22:10.484Z,17.70
2022-09-20T20:25:17.538Z,17.60
2022-09-20T20:27:44.673Z,17.50
2022-09-20T20:30:12.211Z,17.40
2022-09-20T20:32:40.497Z,17.30
2022-09-20T20:35:08.102Z,17.20
2022-09-20T20:37:35.363Z,17.20
2022-09-20T20:40:05.368Z,17.20
2022-09-20T20:42:33.771Z,17.20
2022-09-20T20:45:01.033Z,17.20
2022-09-20T20:47:28.255Z,17.20
2022-09-20T20:49:55.324Z,17.20
2022-09-20T20:52:22.482Z,17.20
2022-09-20T20:54:50.720Z,17.30
2022-09-20T20:57:19.058Z,17.30
2022-09-20T20:59:46.333Z,17.30
2022-09-20T21:02:13.243Z,17.30
2022-09-20T21:05:10.285Z,17.20
2022-09-20T21:07:37.573Z,17.10
2022-09-20T21:10:04.812Z,17.10
2022-09-20T21:12:31.724Z,17.00
2022-09-20T21:14:58.630Z,17.00
2022-09-20T21:17:25.944Z,16.90
2022-09-20T21:19:53.797Z,16.80
2022-09-20T21:22:21.152Z,16.70
2022-09-20T21:24:51.443Z,16.70
2022-09-20T21:27:18.358Z,16.60
2022-09-20T21:29:45.281Z,16.50
2022-09-20T21:32:12.266Z,16.40
2022-09-20T21:35:10.319Z,16.30
2022-09-20T21:37:37.305Z,16.20
2022-09-20T21:40:04.601Z,16.20
2022-09-20T21:42:31.570Z,16.10
2022-09-20T21:44:58.557Z,16.00
2022-09-20T21:47:25.441Z,15.90
2022-09-20T21:49:52.621Z,15.80
2022-09-20T21:52:19.665Z,15.70
2022-09-20T21:55:17.988Z,15.60
2022-09-20T21:57:44.933Z,15.50
2022-09-20T22:00:12.366Z,15.40
2022-09-20T22:03:17.188Z,15.40
2022-09-20T22:05:44.165Z,15.30
2022-09-20T22:08:11.109Z,15.20
2022-09-20T22:10:38.090Z,15.20
2022-09-20T22:13:25.494Z,15.10
2022-09-20T22:15:52.571Z,15.00
2022-09-20T22:18:19.572Z,15.00
2022-09-20T22:20:46.446Z,15.00
2022-09-20T22:23:15.909Z,15.10
2022-09-20T22:25:43.113Z,15.00
2022-09-20T22:28:10.121Z,15.10
2022-09-20T22:30:37.090Z,15.10
2022-09-20T22:33:06.319Z,15.10
2022-09-20T22:35:33.192Z,15.10
2022-09-20T22:38:00.075Z,15.10
2022-09-20T22:40:26.993Z,15.10
2022-09-20T22:44:00.757Z,15.20
2022-09-20T22:46:29.348Z,15.20
2022-09-20T22:48:56.366Z,15.20
2022-09-20T22:51:26.220Z,15.30
2022-09-20T22:53:53.873Z,15.30
2022-09-20T22:56:28.120Z,15.30
2022-09-20T22:58:57.664Z,15.40
2022-09-20T23:01:27.358Z,15.40
2022-09-20T23:04:16.814Z,15.40
2022-09-20T23:06:54.918Z,15.40
2022-09-20T23:09:24.574Z,15.40
2022-09-20T23:11:51.778Z,15.50
2022-09-20T23:14:40.552Z,15.50
2022-09-20T23:17:07.399Z,15.50
2022-09-20T23:19:34.376Z,15.50
2022-09-20T23:22:01.293Z,15.50
2022-09-20T23:28:18.500Z,15.50
2022-09-20T23:30:45.401Z,15.50
2022-09-20T23:34:17.604Z,15.50
2022-09-20T23:36:44.986Z,15.40
2022-09-20T23:39:13.238Z,15.40
2022-09-20T23:41:41.671Z,15.40
2022-09-20T23:44:11.422Z,15.40
2022-09-20T23:46:39.079Z,15.40
2022-09-20T23:49:06.908Z,15.40
2022-09-20T23:51:35.348Z,15.40
2022-09-20T23:58:28.258Z,15.40
